Time;durP1;ratioP1;P1;durP2;ratioP2;P2;SDS_P1;SDS_P2;PMS_P1;PMS_P2;Temp;Humidity;BMP_temperature;BMP_pressure;BME280_temperature;BME280_humidity;BME280_pressure;Samples;Min_cycle;Max_cycle;Signal;HPM_P1;HPM_P2
2022/09/15 00:01:30;;;;;;;12.70;7.68;;;;;;;-146.58;100.00;69501.63;4992074;28;20068;-67
2022/09/15 00:03:55;;;;;;;13.27;8.98;;;;;;;-146.58;100.00;69501.63;4993692;28;20058;-67
2022/09/15 00:06:20;;;;;;;11.77;8.52;;;;;;;-146.58;100.00;69501.63;4992576;28;20045;-67
2022/09/15 00:08:46;;;;;;;14.25;9.90;;;;;;;-146.58;100.00;69501.63;4993629;28;20038;-67
2022/09/15 00:11:17;;;;;;;12.80;9.55;;;;;;;-146.58;100.00;69501.63;4992273;28;20038;-67
2022/09/15 00:13:43;;;;;;;12.15;10.32;;;;;;;-146.58;100.00;69501.63;4993996;28;20069;-67
2022/09/15 00:16:10;;;;;;;15.40;13.05;;;;;;;-146.58;100.00;69501.63;4991330;28;20527;-67
2022/09/15 00:18:37;;;;;;;14.65;12.43;;;;;;;-146.58;100.00;69501.63;4993926;28;20033;-67
2022/09/15 00:21:13;;;;;;;19.92;13.18;;;;;;;-146.58;100.00;69501.63;4992038;28;20046;-68
2022/09/15 00:23:38;;;;;;;16.70;10.27;;;;;;;-146.58;100.00;69501.63;4993360;28;20022;-68
2022/09/15 00:26:09;;;;;;;16.33;12.95;;;;;;;-146.58;100.00;69501.63;4991660;28;20516;-67
2022/09/15 00:28:35;;;;;;;16.30;11.30;;;;;;;-146.58;100.00;69501.63;4991217;28;20033;-66
2022/09/15 00:31:05;;;;;;;23.77;14.50;;;;;;;-146.58;100.00;69501.63;4992859;28;20050;-66
2022/09/15 00:33:30;;;;;;;19.92;13.40;;;;;;;-146.58;100.00;69501.63;4991789;28;20062;-66
2022/09/15 00:36:01;;;;;;;14.73;13.20;;;;;;;-146.58;100.00;69501.63;4992656;28;20030;-67
2022/09/15 00:38:27;;;;;;;17.85;12.30;;;;;;;-146.58;100.00;69501.63;4993038;28;20117;-66
2022/09/15 00:40:54;;;;;;;17.10;13.50;;;;;;;-146.58;100.00;69501.63;4991751;28;20121;-66
2022/09/15 00:43:40;;;;;;;26.67;13.75;;;;;;;-146.58;100.00;69501.63;4992837;28;20065;-66
2022/09/15 00:46:05;;;;;;;14.57;12.65;;;;;;;-146.58;100.00;69501.63;4991385;28;20035;-66
2022/09/15 00:48:32;;;;;;;16.60;12.25;;;;;;;-146.58;100.00;69501.63;4991454;28;20041;-66
2022/09/15 00:50:59;;;;;;;12.80;11.48;;;;;;;-146.58;100.00;69501.63;4992616;28;20036;-67
2022/09/15 00:53:25;;;;;;;14.95;12.85;;;;;;;15.99;100.00;164747.09;4992796;28;20065;-69
2022/09/15 00:55:51;;;;;;;14.07;9.07;;;;;;;13.13;100.00;163997.38;4991438;28;20125;-69
2022/09/15 00:58:23;;;;;;;17.40;10.52;;;;;;;13.17;100.00;164008.19;4992876;28;20113;-69
2022/09/15 01:00:57;;;;;;;13.57;10.45;;;;;;;13.17;100.00;164009.56;4990797;28;20604;-69
2022/09/15 01:03:24;;;;;;;12.23;9.27;;;;;;;13.19;100.00;164013.59;4992992;28;20062;-68
2022/09/15 01:06:24;;;;;;;12.23;9.45;;;;;;;13.28;100.00;164037.94;4991322;28;20034;-67
2022/09/15 01:08:57;;;;;;;14.57;9.27;;;;;;;13.23;100.00;164024.38;4966894;28;20100;-67
2022/09/15 01:11:22;;;;;;;16.75;10.77;;;;;;;13.23;100.00;164024.38;4992476;28;20057;-67
2022/09/15 01:13:48;;;;;;;15.57;10.82;;;;;;;13.21;100.00;164019.03;4991378;28;20038;-66
2022/09/15 01:16:30;;;;;;;13.25;11.32;;;;;;;13.25;100.00;164029.81;4991842;28;20026;-67
2022/09/15 01:19:14;;;;;;;12.07;10.70;;;;;;;13.31;100.00;164046.03;4991112;28;20038;-66
2022/09/15 01:21:50;;;;;;;14.13;10.93;;;;;;;13.30;100.00;164043.31;4992458;28;20036;-66
2022/09/15 01:24:39;;;;;;;13.52;8.20;;;;;;;13.33;100.00;164051.44;4990150;28;20624;-72
2022/09/15 01:27:35;;;;;;;10.50;9.50;;;;;;;13.37;100.00;164059.53;4992243;28;20030;-72
2022/09/15 01:30:19;;;;;;;11.60;10.43;;;;;;;13.40;100.00;164067.72;4990069;28;20061;-72
2022/09/15 01:33:03;;;;;;;17.60;9.18;;;;;;;13.46;100.00;164083.94;4992650;28;20026;-72
2022/09/15 01:35:50;;;;;;;9.77;8.85;;;;;;;13.47;100.00;164086.66;4990831;28;20130;-72
2022/09/15 01:38:27;;;;;;;11.48;10.43;;;;;;;13.48;100.00;164089.34;4991798;28;20030;-71
2022/09/15 01:41:08;;;;;;;14.65;8.90;;;;;;;13.49;100.00;164092.06;4990278;28;20065;-72
2022/09/15 01:43:40;;;;;;;11.27;10.02;;;;;;;13.52;100.00;164100.16;4990492;28;20034;-71
2022/09/15 01:46:06;;;;;;;11.70;9.50;;;;;;;13.53;100.00;164102.88;4991650;28;20068;-71
2022/09/15 01:48:34;;;;;;;11.75;10.45;;;;;;;13.46;100.00;164085.31;4990737;28;20101;-71
2022/09/15 01:51:02;;;;;;;10.38;9.32;;;;;;;13.50;100.00;164094.78;4991826;28;20367;-72
2022/09/15 01:53:28;;;;;;;12.23;10.18;;;;;;;13.41;100.00;164070.44;4991613;28;20022;-72
2022/09/15 01:55:59;;;;;;;14.18;11.45;;;;;;;13.39;100.00;164066.38;4990377;28;20140;-71
2022/09/15 01:58:25;;;;;;;12.20;11.05;;;;;;;13.32;100.00;164047.41;4992269;28;20030;-71
2022/09/15 02:01:05;;;;;;;20.73;12.30;;;;;;;13.29;100.00;164039.28;4989752;28;20587;-72
2022/09/15 02:03:44;;;;;;;13.82;10.40;;;;;;;13.29;100.00;164040.59;4990415;28;20029;-71
2022/09/15 02:06:17;;;;;;;13.70;12.00;;;;;;;13.24;100.00;164027.09;4991662;28;20026;-71
2022/09/15 02:08:56;;;;;;;14.95;11.00;;;;;;;13.22;100.00;164021.69;4989975;28;20034;-71
2022/09/15 02:11:26;;;;;;;13.45;10.68;;;;;;;13.21;100.00;164019.03;4991984;28;20191;-71
2022/09/15 02:14:12;;;;;;;17.38;12.02;;;;;;;13.24;100.00;164027.09;4990110;28;20035;-71
2022/09/15 02:16:42;;;;;;;14.05;11.68;;;;;;;13.31;100.00;164046.03;4991747;28;20023;-71
2022/09/15 02:19:36;;;;;;;16.00;12.82;;;;;;;13.37;100.00;164060.91;4989881;28;20034;-71
2022/09/15 02:22:11;;;;;;;18.83;13.60;;;;;;;13.34;100.00;164052.78;4991215;28;20025;-69
2022/09/15 02:24:42;;;;;;;20.42;12.48;;;;;;;13.36;100.00;164056.88;4990341;28;20038;-67
2022/09/15 02:27:11;;;;;;;20.88;12.80;;;;;;;13.31;100.00;164046.03;4991752;28;20046;-67
2022/09/15 02:29:38;;;;;;;17.05;11.60;;;;;;;13.39;100.00;164065.00;4989322;28;20128;-65
2022/09/15 02:32:05;;;;;;;16.20;11.70;;;;;;;13.40;100.00;164067.72;4991457;28;20030;-65
2022/09/15 02:34:43;;;;;;;15.25;11.60;;;;;;;13.43;100.00;164075.84;4990128;28;20054;-67
2022/09/15 02:37:10;;;;;;;16.98;11.85;;;;;;;13.39;100.00;164065.00;4991113;28;20112;-67
2022/09/15 02:39:39;;;;;;;14.05;10.50;;;;;;;13.38;100.00;164063.69;4990013;28;20042;-68
2022/09/15 02:42:05;;;;;;;13.43;11.05;;;;;;;13.31;100.00;164046.03;4991235;28;20029;-66
2022/09/15 02:44:30;;;;;;;16.67;10.40;;;;;;;13.27;100.00;164033.84;4989949;28;20046;-66
2022/09/15 02:46:57;;;;;;;13.32;10.38;;;;;;;13.22;100.00;164021.69;4991551;28;20398;-66
2022/09/15 02:49:23;;;;;;;12.38;10.98;;;;;;;13.24;100.00;164027.09;4989909;28;20043;-65
2022/09/15 02:51:48;;;;;;;12.70;10.25;;;;;;;13.24;100.00;164027.09;4994154;28;20019;-65
2022/09/15 02:54:14;;;;;;;23.40;10.90;;;;;;;13.23;100.00;164024.38;4993132;28;20057;-65
2022/09/15 02:56:39;;;;;;;9.00;8.18;;;;;;;13.25;100.00;164029.81;4995396;28;20026;-65
2022/09/15 02:59:05;;;;;;;12.95;10.15;;;;;;;13.27;100.00;164035.22;4993092;28;20034;-65
2022/09/15 03:01:31;;;;;;;16.15;10.35;;;;;;;13.24;100.00;164027.09;4995122;28;20061;-66
2022/09/15 03:03:57;;;;;;;18.92;11.48;;;;;;;13.28;100.00;164037.94;4993406;28;20049;-65
2022/09/15 03:06:23;;;;;;;13.77;8.10;;;;;;;13.31;100.00;164046.03;4994545;28;20076;-65
2022/09/15 03:08:54;;;;;;;9.68;8.02;;;;;;;13.36;100.00;164056.88;4994066;28;20026;-65
2022/09/15 03:11:21;;;;;;;18.38;9.40;;;;;;;13.40;100.00;164069.09;4994596;28;20129;-65
2022/09/15 03:13:47;;;;;;;10.07;9.00;;;;;;;13.38;100.00;164062.25;4992987;28;20037;-65
2022/09/15 03:16:14;;;;;;;9.50;8.55;;;;;;;13.39;100.00;164065.00;4994492;28;20030;-65
2022/09/15 03:18:40;;;;;;;13.35;8.45;;;;;;;13.44;100.00;164078.56;4993318;28;20026;-65
2022/09/15 03:21:09;;;;;;;16.23;8.55;;;;;;;13.49;100.00;164092.06;4994111;28;20033;-65
2022/09/15 03:23:35;;;;;;;10.27;8.40;;;;;;;13.52;100.00;164100.16;4993414;28;20022;-68
2022/09/15 03:26:01;;;;;;;15.05;8.07;;;;;;;13.58;100.00;164116.41;4994483;28;20029;-68
2022/09/15 03:28:27;;;;;;;14.70;8.85;;;;;;;13.60;100.00;164120.47;4994260;28;20139;-68
2022/09/15 03:30:53;;;;;;;12.77;8.88;;;;;;;13.60;100.00;164121.78;4992502;28;20073;-67
2022/09/15 03:33:18;;;;;;;10.52;8.43;;;;;;;13.61;100.00;164123.19;4994334;28;20033;-68
2022/09/15 03:35:49;;;;;;;10.70;8.05;;;;;;;13.62;100.00;164127.22;4992795;28;20410;-68
2022/09/15 03:38:14;;;;;;;16.00;8.02;;;;;;;13.64;100.00;164132.63;4994448;28;20033;-68
2022/09/15 03:40:41;;;;;;;11.55;8.18;;;;;;;13.63;100.00;164129.94;4992615;28;20043;-68
2022/09/15 03:43:08;;;;;;;11.02;8.88;;;;;;;13.76;100.00;164162.38;4993935;28;20068;-68
2022/09/15 03:45:33;;;;;;;13.15;8.10;;;;;;;13.74;100.00;164156.94;4992564;28;20042;-68
2022/09/15 03:47:58;;;;;;;16.73;7.97;;;;;;;13.75;100.00;164161.03;4994075;28;20034;-68
2022/09/15 03:50:24;;;;;;;10.40;7.47;;;;;;;13.68;100.00;164140.72;4992252;28;20046;-68
2022/09/15 03:52:49;;;;;;;13.00;9.18;;;;;;;13.60;100.00;164121.78;4994144;28;20480;-68
2022/09/15 03:55:14;;;;;;;13.55;8.57;;;;;;;13.63;100.00;164129.94;4992629;28;20065;-68
2022/09/15 03:57:40;;;;;;;13.25;9.35;;;;;;;13.62;100.00;164127.22;4993716;28;20030;-68
2022/09/15 04:00:07;;;;;;;8.38;7.47;;;;;;;13.60;100.00;164121.78;4991861;28;20238;-68
2022/09/15 04:02:32;;;;;;;15.45;8.05;;;;;;;13.57;100.00;164113.72;4994141;28;20033;-68
2022/09/15 04:04:58;;;;;;;10.57;8.00;;;;;;;13.51;100.00;164096.13;4992098;28;20038;-68
2022/09/15 04:07:24;;;;;;;17.45;10.07;;;;;;;13.45;100.00;164081.22;4994097;28;20025;-68
2022/09/15 04:09:50;;;;;;;11.45;8.02;;;;;;;13.42;100.00;164074.47;4992230;28;20049;-68
2022/09/15 04:12:15;;;;;;;14.73;8.45;;;;;;;13.43;100.00;164075.84;4992909;28;20385;-68
2022/09/15 04:14:41;;;;;;;9.55;8.40;;;;;;;13.40;100.00;164067.72;4992090;28;20527;-68
2022/09/15 04:17:06;;;;;;;8.98;8.05;;;;;;;13.38;100.00;164062.25;4993273;28;20034;-68
2022/09/15 04:19:31;;;;;;;17.15;9.45;;;;;;;13.36;100.00;164056.88;4991692;28;20046;-68
2022/09/15 04:21:57;;;;;;;12.02;8.48;;;;;;;13.37;100.00;164059.53;4993123;28;20548;-65
2022/09/15 04:24:22;;;;;;;10.10;8.35;;;;;;;13.37;100.00;164059.53;4992467;28;20457;-64
2022/09/15 04:26:47;;;;;;;19.92;11.15;;;;;;;13.36;100.00;164056.88;4993678;28;20030;-65
2022/09/15 04:29:14;;;;;;;9.85;8.85;;;;;;;13.37;100.00;164059.53;4991697;28;20038;-65
2022/09/15 04:31:40;;;;;;;12.40;8.25;;;;;;;13.39;100.00;164065.00;4992940;28;20054;-65
2022/09/15 04:34:05;;;;;;;13.65;8.18;;;;;;;13.38;100.00;164062.25;4991974;28;20599;-64
2022/09/15 04:36:30;;;;;;;15.98;9.50;;;;;;;13.42;100.00;164073.13;4992220;28;20022;-64
2022/09/15 04:38:57;;;;;;;11.63;9.07;;;;;;;13.44;100.00;164078.56;4991104;28;20039;-64
2022/09/15 04:41:24;;;;;;;15.43;8.02;;;;;;;13.45;100.00;164081.22;4992577;28;20034;-65
2022/09/15 04:43:50;;;;;;;14.13;7.75;;;;;;;13.45;100.00;164081.22;4991565;28;20566;-64
2022/09/15 04:46:17;;;;;;;13.88;9.10;;;;;;;13.45;100.00;164081.22;4993336;28;20109;-64
2022/09/15 04:48:44;;;;;;;11.30;8.82;;;;;;;13.43;100.00;164075.84;4992091;28;20034;-64
2022/09/15 04:51:12;;;;;;;15.95;9.02;;;;;;;13.45;100.00;164081.22;4992739;28;20038;-68
2022/09/15 04:53:38;;;;;;;10.07;7.32;;;;;;;13.45;100.00;164081.22;4991768;28;20026;-68
2022/09/15 04:56:06;;;;;;;15.25;10.05;;;;;;;13.45;100.00;164081.22;4992873;28;20029;-68
2022/09/15 04:58:47;;;;;;;15.82;8.88;;;;;;;13.46;100.00;164083.94;4991535;28;20034;-68
2022/09/15 05:01:18;;;;;;;17.75;8.15;;;;;;;13.43;100.00;164075.84;4992869;28;20376;-68
2022/09/15 05:03:45;;;;;;;10.77;7.70;;;;;;;13.43;100.00;164075.84;4991408;28;20026;-68
2022/09/15 05:06:13;;;;;;;15.27;9.13;;;;;;;13.45;100.00;164081.22;4992488;28;20102;-68
2022/09/15 05:08:38;;;;;;;16.70;9.18;;;;;;;13.45;100.00;164081.22;4991431;28;20026;-68
2022/09/15 05:11:08;;;;;;;11.40;8.07;;;;;;;13.48;100.00;164090.69;4992487;28;20045;-68
2022/09/15 05:13:34;;;;;;;15.45;8.02;;;;;;;13.50;100.00;164094.78;4990708;28;20030;-68
2022/09/15 05:16:20;;;;;;;13.85;7.82;;;;;;;13.49;100.00;164092.06;4992405;28;20033;-68
2022/09/15 05:18:47;;;;;;;13.90;9.50;;;;;;;13.51;100.00;164096.13;4991108;28;20037;-65
2022/09/15 05:21:14;;;;;;;7.53;6.65;;;;;;;13.50;100.00;164094.78;4992373;28;20026;-68
2022/09/15 05:23:40;;;;;;;15.95;7.57;;;;;;;13.53;100.00;164101.53;4990970;28;20022;-66
2022/09/15 05:26:10;;;;;;;8.40;6.57;;;;;;;13.53;100.00;164102.88;4992160;28;20019;-62
2022/09/15 05:28:36;;;;;;;8.45;6.80;;;;;;;13.53;100.00;164102.88;4990748;28;20623;-61
2022/09/15 05:31:10;;;;;;;9.15;5.97;;;;;;;13.54;100.00;164105.56;4992116;28;20086;-68
2022/09/15 05:33:36;;;;;;;11.35;8.18;;;;;;;13.56;100.00;164109.63;4990913;28;20019;-64
2022/09/15 05:36:02;;;;;;;9.40;7.22;;;;;;;13.57;100.00;164112.31;4991523;28;20033;-65
2022/09/15 05:38:29;;;;;;;12.73;6.68;;;;;;;13.57;100.00;164112.31;4992412;28;20084;-64
2022/09/15 05:41:01;;;;;;;8.77;7.80;;;;;;;13.63;100.00;164129.94;4990599;28;20418;-65
2022/09/15 05:43:29;;;;;;;7.93;5.63;;;;;;;13.67;100.00;164138.00;4992251;28;20045;-65
2022/09/15 05:45:55;;;;;;;13.63;7.28;;;;;;;13.68;100.00;164142.09;4990794;28;20039;-65
2022/09/15 05:48:20;;;;;;;12.23;6.13;;;;;;;13.74;100.00;164156.94;4991951;28;20038;-65
2022/09/15 05:50:50;;;;;;;11.82;6.75;;;;;;;13.74;100.00;164156.94;4990419;28;20050;-64
2022/09/15 05:53:16;;;;;;;10.10;6.85;;;;;;;13.76;100.00;164162.38;4991865;28;20022;-64
2022/09/15 05:55:41;;;;;;;12.57;7.70;;;;;;;13.82;100.00;164178.59;4990574;28;20049;-64
2022/09/15 05:58:07;;;;;;;15.75;8.23;;;;;;;13.90;100.00;164198.91;4991465;28;20030;-64
2022/09/15 06:00:33;;;;;;;7.50;6.68;;;;;;;13.96;100.00;164216.47;4990548;28;20044;-64
2022/09/15 06:02:58;;;;;;;11.68;6.15;;;;;;;14.00;100.00;164224.59;4991617;28;20113;-64
2022/09/15 06:05:24;;;;;;;6.30;5.47;;;;;;;14.04;100.00;164235.38;4990203;28;20041;-64
2022/09/15 06:07:54;;;;;;;8.15;5.38;;;;;;;14.10;100.00;164251.66;4991793;28;20034;-64
2022/09/15 06:10:23;;;;;;;9.20;6.57;;;;;;;14.16;100.00;164266.50;4990432;28;20042;-64
2022/09/15 06:12:52;;;;;;;11.25;5.47;;;;;;;14.15;100.00;164263.84;4991770;28;20029;-64
2022/09/15 06:15:21;;;;;;;10.95;5.45;;;;;;;14.19;100.00;164274.66;4990112;28;20581;-64
2022/09/15 06:17:47;;;;;;;8.20;5.70;;;;;;;14.19;100.00;164275.97;4992033;28;20034;-64
2022/09/15 06:20:12;;;;;;;13.98;6.60;;;;;;;14.18;100.00;164271.94;4989690;28;20045;-64
2022/09/15 06:22:38;;;;;;;10.80;5.65;;;;;;;14.12;100.00;164257.03;4991531;28;20033;-64
2022/09/15 06:25:04;;;;;;;6.00;4.22;;;;;;;14.20;100.00;164277.34;4990339;28;20030;-64
2022/09/15 06:27:30;;;;;;;10.45;4.95;;;;;;;14.23;100.00;164286.81;4995507;28;20026;-64
2022/09/15 06:29:55;;;;;;;6.80;5.93;;;;;;;14.31;100.00;164305.75;4993850;28;20058;-64
2022/09/15 06:32:20;;;;;;;14.63;6.85;;;;;;;14.31;100.00;164305.75;4995754;28;20474;-64
2022/09/15 06:34:46;;;;;;;10.57;5.43;;;;;;;14.40;100.00;164330.13;4994137;28;20046;-64
2022/09/15 06:37:11;;;;;;;8.40;5.45;;;;;;;14.49;100.00;164353.13;4995548;28;20429;-64
2022/09/15 06:39:37;;;;;;;10.43;6.03;;;;;;;14.54;100.00;164368.00;4994181;28;20502;-64
2022/09/15 06:42:02;;;;;;;11.65;4.55;;;;;;;14.64;100.00;164393.72;4993563;28;20031;-64
2022/09/15 06:44:28;;;;;;;7.32;4.55;;;;;;;14.72;100.00;164414.03;4984136;28;20043;-64
2022/09/15 06:46:53;;;;;;;9.35;4.25;;;;;;;14.79;100.00;164432.97;4976650;28;20026;-64
2022/09/15 06:49:20;;;;;;;11.07;4.85;;;;;;;14.88;100.00;164457.34;4993624;28;20418;-64
2022/09/15 06:51:46;;;;;;;8.88;5.05;;;;;;;14.99;100.00;164484.44;4995310;28;20064;-64
2022/09/15 06:54:14;;;;;;;7.38;4.50;;;;;;;15.07;100.00;164506.09;4993509;28;20527;-63
2022/09/15 06:56:40;;;;;;;7.63;4.28;;;;;;;15.10;100.00;164514.19;4995177;28;20031;-63
2022/09/15 06:59:06;;;;;;;17.75;4.80;;;;;;;15.17;100.00;164533.13;4993243;28;20043;-63
2022/09/15 07:01:31;;;;;;;8.57;3.55;;;;;;;15.33;100.00;164573.75;4995328;28;20033;-63
2022/09/15 07:03:59;;;;;;;14.95;4.10;;;;;;;15.38;100.00;164587.25;4993045;28;20121;-63
2022/09/15 07:06:30;;;;;;;8.25;5.05;;;;;;;15.47;100.00;164610.31;4995078;28;20482;-63
2022/09/15 07:08:57;;;;;;;6.80;4.35;;;;;;;15.47;100.00;164611.66;4993320;28;20130;-62
2022/09/15 07:11:22;;;;;;;3.95;2.97;;;;;;;15.52;100.00;164625.22;4994920;28;20026;-63
2022/09/15 07:13:48;;;;;;;11.20;4.15;;;;;;;15.64;100.00;164654.97;4993818;28;20081;-63
2022/09/15 07:16:13;;;;;;;9.15;3.17;;;;;;;15.77;100.00;164690.16;4994526;28;20026;-63
2022/09/15 07:18:39;;;;;;;6.20;3.15;;;;;;;15.87;100.00;164715.94;4993128;28;20097;-62
2022/09/15 07:21:07;;;;;;;7.65;3.05;;;;;;;15.86;100.00;164714.59;4994586;28;20018;-63
2022/09/15 07:23:34;;;;;;;8.23;2.83;;;;;;;16.03;100.00;164757.94;4992732;28;20027;-62
2022/09/15 07:26:29;;;;;;;7.75;3.22;;;;;;;16.15;100.00;164790.44;4994127;28;20037;-63
2022/09/15 07:29:00;;;;;;;6.30;2.80;;;;;;;15.98;100.00;164744.38;4984597;28;20057;-63
2022/09/15 07:31:29;;;;;;;13.55;4.05;;;;;;;16.09;100.00;164774.19;4994529;28;20055;-63
2022/09/15 07:33:55;;;;;;;7.70;3.78;;;;;;;-146.58;100.00;69501.63;4992673;28;20038;-63
2022/09/15 07:36:21;;;;;;;8.07;3.47;;;;;;;-146.58;100.00;69501.63;4991809;28;20038;-63
2022/09/15 07:38:47;;;;;;;8.85;2.88;;;;;;;-146.58;100.00;69501.63;4992195;28;20061;-62
2022/09/15 07:41:19;;;;;;;7.97;3.35;;;;;;;-146.58;100.00;69501.63;4993537;28;20022;-63
2022/09/15 07:43:56;;;;;;;14.02;2.80;;;;;;;-146.58;100.00;69501.63;4992956;28;20383;-62
2022/09/15 07:46:23;;;;;;;7.50;2.90;;;;;;;-146.58;100.00;69501.63;4998879;28;20028;-63
2022/09/15 07:48:55;;;;;;;12.00;2.88;;;;;;;-146.58;100.00;69501.63;4996931;28;20061;-63
2022/09/15 07:51:20;;;;;;;5.40;2.85;;;;;;;-146.58;100.00;69501.63;5007834;28;20038;-63
2022/09/15 07:53:46;;;;;;;11.00;4.10;;;;;;;-146.58;100.00;69501.63;4992751;28;20030;-63
2022/09/15 07:56:12;;;;;;;6.63;2.75;;;;;;;-146.58;100.00;69501.63;4993630;28;20026;-63
2022/09/15 07:58:37;;;;;;;9.65;2.13;;;;;;;-146.58;100.00;69501.63;5003326;28;20389;-62
2022/09/15 08:01:07;;;;;;;7.93;2.35;;;;;;;-146.58;100.00;69501.63;5013657;28;20018;-63
2022/09/15 08:03:33;;;;;;;10.63;3.67;;;;;;;-146.58;100.00;69501.63;5010945;28;20499;-62
2022/09/15 08:05:59;;;;;;;7.07;2.40;;;;;;;-146.58;100.00;69501.63;4994558;28;20023;-64
2022/09/15 08:08:25;;;;;;;7.13;2.58;;;;;;;-146.58;100.00;69501.63;4995360;28;20033;-64
2022/09/15 08:10:51;;;;;;;7.63;2.53;;;;;;;-146.58;100.00;69501.63;4992146;28;20046;-63
2022/09/15 08:13:16;;;;;;;11.35;3.53;;;;;;;-146.58;100.00;69501.63;4993906;28;20026;-63
2022/09/15 08:15:42;;;;;;;5.88;2.67;;;;;;;-146.58;100.00;69501.63;4993215;28;20510;-65
2022/09/15 08:18:08;;;;;;;10.23;2.75;;;;;;;-146.58;100.00;69501.63;5002168;28;20033;-65
2022/09/15 08:20:33;;;;;;;8.05;3.08;;;;;;;-146.58;100.00;69501.63;5011262;28;20450;-65
2022/09/15 08:22:59;;;;;;;3.95;2.08;;;;;;;-146.58;100.00;69501.63;5012366;28;20037;-64
2022/09/15 08:25:24;;;;;;;11.68;2.60;;;;;;;-146.58;100.00;69501.63;5001141;28;20387;-64
2022/09/15 08:27:52;;;;;;;6.43;2.25;;;;;;;-146.58;100.00;69501.63;4994576;28;20026;-62
2022/09/15 08:30:17;;;;;;;10.65;1.90;;;;;;;-146.58;100.00;69501.63;4992823;28;20084;-63
2022/09/15 08:32:43;;;;;;;4.82;1.70;;;;;;;-146.58;100.00;69501.63;4993193;28;20030;-63
2022/09/15 08:35:08;;;;;;;8.25;2.10;;;;;;;-146.58;100.00;69501.63;4990716;28;20035;-63
2022/09/15 08:37:34;;;;;;;3.00;1.65;;;;;;;-146.58;100.00;69501.63;4992307;28;20041;-62
2022/09/15 08:39:59;;;;;;;13.52;4.10;;;;;;;-146.58;100.00;69501.63;4990215;28;20050;-62
2022/09/15 08:42:27;;;;;;;7.00;3.33;;;;;;;-146.58;100.00;69501.63;4992053;28;20026;-62
2022/09/15 08:44:54;;;;;;;;;;;;;;;-146.58;100.00;69501.63;4991082;28;20505;-62
2022/09/15 08:47:24;;;;;;;4.45;1.67;;;;;;;-146.58;100.00;69501.63;4991996;28;19996;-62
2022/09/15 08:50:28;;;;;;;6.65;2.28;;;;;;;-146.58;100.00;69501.63;4990455;28;20057;-62
2022/09/15 08:53:05;;;;;;;2.03;1.45;;;;;;;-146.58;100.00;69501.63;4951475;29;20042;-61
2022/09/15 08:55:52;;;;;;;4.28;1.95;;;;;;;-146.58;100.00;69501.63;4986915;28;20146;-62
2022/09/15 08:58:20;;;;;;;6.05;1.73;;;;;;;-146.58;100.00;69501.63;4992918;28;20026;-62
2022/09/15 09:00:50;;;;;;;3.40;2.00;;;;;;;-146.58;100.00;69501.63;4991310;28;20038;-62
2022/09/15 09:03:47;;;;;;;13.68;2.85;;;;;;;-146.58;100.00;69501.63;4992820;28;20029;-62
2022/09/15 09:06:36;;;;;;;2.55;1.42;;;;;;;-146.58;100.00;69501.63;4991324;28;20752;-62
2022/09/15 09:09:31;;;;;;;6.22;2.33;;;;;;;17.83;100.00;165230.84;4991054;28;20034;-62
2022/09/15 09:12:59;;;;;;;2.17;1.55;;;;;;;18.08;100.00;165295.97;4992860;28;20390;-62
2022/09/15 09:15:38;;;;;;;6.60;3.10;;;;;;;18.20;100.00;165327.16;4968539;28;20038;-63
2022/09/15 09:18:36;;;;;;;4.53;1.48;;;;;;;18.29;100.00;165351.53;4974997;28;20066;-62
2022/09/15 09:21:01;;;;;;;2.65;1.58;;;;;;;18.41;100.00;165381.38;4976862;28;20070;-62
2022/09/15 09:23:30;;;;;;;6.20;1.20;;;;;;;18.49;100.00;165403.09;5000317;28;20145;-62
2022/09/15 09:25:56;;;;;;;4.95;1.45;;;;;;;18.70;100.00;165460.03;4994725;28;20057;-62
2022/09/15 09:28:29;;;;;;;2.88;1.20;;;;;;;18.67;100.00;165451.88;5000789;28;20140;-63
2022/09/15 09:31:00;;;;;;;5.80;2.70;;;;;;;18.75;100.00;165470.88;5007737;28;20049;-62
2022/09/15 09:33:30;;;;;;;7.53;2.78;;;;;;;18.92;100.00;165517.06;5012149;28;20105;-62
2022/09/15 09:35:58;;;;;;;12.05;3.53;;;;;;;19.08;100.00;165557.75;5008684;28;20092;-63
2022/09/15 09:38:29;;;;;;;5.60;3.67;;;;;;;19.10;100.00;165563.19;4993618;28;20054;-61
2022/09/15 09:40:55;;;;;;;5.10;1.33;;;;;;;19.08;100.00;165559.09;4990834;28;20100;-60
2022/09/15 09:43:20;;;;;;;5.40;2.67;;;;;;;18.94;100.00;165522.50;4991906;28;20033;-62
2022/09/15 09:45:45;;;;;;;2.80;1.40;;;;;;;19.02;100.00;165544.16;4991622;28;20038;-62
2022/09/15 09:48:17;;;;;;;5.22;1.70;;;;;;;19.11;100.00;165565.84;4992299;28;20029;-62
2022/09/15 09:50:43;;;;;;;6.25;1.65;;;;;;;19.24;100.00;165601.16;4998729;28;20041;-62
2022/09/15 09:53:26;;;;;;;22.17;1.85;;;;;;;18.95;100.00;165525.16;4991410;28;20474;-62
2022/09/15 09:56:16;;;;;;;3.08;1.27;;;;;;;18.79;100.00;165483.09;4990783;28;20575;-62
2022/09/15 09:58:41;;;;;;;4.30;1.20;;;;;;;18.75;100.00;165470.88;4990815;28;20030;-62
2022/09/15 10:01:12;;;;;;;8.27;1.98;;;;;;;19.02;100.00;165544.16;4988041;28;20033;-62
2022/09/15 10:03:37;;;;;;;1.90;1.23;;;;;;;19.56;100.00;165685.25;4990502;28;20118;-62
2022/09/15 10:06:19;;;;;;;5.68;1.40;;;;;;;19.84;100.00;165758.63;4990357;28;20112;-62
2022/09/15 10:08:57;;;;;;;3.33;1.17;;;;;;;19.97;100.00;165792.50;4990191;28;20022;-62
2022/09/15 10:11:50;;;;;;;31.65;3.08;;;;;;;20.05;100.00;165812.88;4991677;28;20477;-62
2022/09/15 10:14:35;;;;;;;5.82;1.33;;;;;;;19.76;100.00;165736.84;4987065;28;20092;-62
2022/09/15 10:17:06;;;;;;;3.17;1.65;;;;;;;19.44;100.00;165652.72;4978782;28;20374;-62
2022/09/15 10:19:36;;;;;;;6.35;1.63;;;;;;;19.23;100.00;165598.44;4989260;28;20050;-62
2022/09/15 10:22:02;;;;;;;5.15;1.33;;;;;;;19.15;100.00;165576.75;4991605;28;20027;-62
2022/09/15 10:24:37;;;;;;;5.55;1.90;;;;;;;19.07;100.00;165555.03;4989503;28;20062;-62
2022/09/15 10:27:30;;;;;;;3.58;1.30;;;;;;;18.67;100.00;165451.88;4990654;28;20076;-63
2022/09/15 10:30:18;;;;;;;4.43;1.20;;;;;;;18.01;100.00;165278.34;4986155;28;20054;-62
2022/09/15 10:32:43;;;;;;;2.67;1.55;;;;;;;17.25;100.00;165077.66;4990612;28;20038;-62
2022/09/15 10:35:18;;;;;;;4.10;1.63;;;;;;;17.08;100.00;165034.34;4989668;28;20512;-62
2022/09/15 10:38:07;;;;;;;7.05;1.50;;;;;;;17.11;100.00;165042.44;4989013;28;20038;-62
2022/09/15 10:40:54;;;;;;;7.93;2.60;;;;;;;16.95;100.00;164999.06;4989394;28;20049;-62
2022/09/15 10:43:39;;;;;;;3.90;1.35;;;;;;;16.99;100.00;165009.94;5001457;28;20445;-62
2022/09/15 10:46:22;;;;;;;2.13;0.95;;;;;;;16.98;100.00;165005.91;5008724;28;20030;-62
2022/09/15 10:49:19;;;;;;;4.72;1.45;;;;;;;16.92;100.00;164990.94;5009673;28;20069;-62
2022/09/15 10:52:30;;;;;;;5.50;1.35;;;;;;;16.74;100.00;164944.84;5011347;28;20033;-62
2022/09/15 10:55:18;;;;;;;2.75;1.63;;;;;;;16.54;100.00;164890.66;5009164;28;20056;-62
2022/09/15 10:58:19;;;;;;;2.67;1.10;;;;;;;16.28;100.00;164822.91;5011081;28;20504;-62
2022/09/15 11:01:11;;;;;;;2.17;1.38;;;;;;;16.21;100.00;164805.34;5009246;28;20490;-62
2022/09/15 11:03:48;;;;;;;7.10;1.70;;;;;;;16.02;100.00;164755.22;5009667;28;20053;-61
2022/09/15 11:06:31;;;;;;;9.05;2.90;;;;;;;16.07;100.00;164768.75;5010659;28;20113;-62
2022/09/15 11:09:08;;;;;;;2.58;1.45;;;;;;;16.09;100.00;164774.19;5009242;28;20038;-62
2022/09/15 11:11:52;;;;;;;2.42;1.35;;;;;;;16.05;100.00;164763.31;5012103;28;20029;-61
2022/09/15 11:14:55;;;;;;;1.83;1.00;;;;;;;16.08;100.00;164770.16;5012790;28;20149;-62
2022/09/15 11:17:36;;;;;;;3.55;1.38;;;;;;;16.30;100.00;164829.72;5014471;28;20034;-62
2022/09/15 11:20:24;;;;;;;3.75;1.10;;;;;;;16.54;100.00;164892.00;5012864;28;20047;-62
2022/09/15 11:22:53;;;;;;;2.85;1.27;;;;;;;16.70;100.00;164934.03;5013946;28;20033;-62
2022/09/15 11:25:31;;;;;;;3.42;1.33;;;;;;;16.91;100.00;164988.22;5012871;28;20034;-62
2022/09/15 11:28:10;;;;;;;3.17;1.70;;;;;;;17.44;100.00;165129.19;5014258;28;20033;-62